Time;durP1;ratioP1;P1;durP2;ratioP2;P2;SDS_P1;SDS_P2;PMS_P1;PMS_P2;Temp;Humidity;BMP_temperature;BMP_pressure;BME280_temperature;BME280_humidity;BME280_pressure;Samples;Min_cycle;Max_cycle;Signal;HPM_P1;HPM_P2
2021/09/05 00:00:42;;;;;;;20.02;6.82;;;;;;;;;;4980323;28;20054;-56
2021/09/05 00:03:08;;;;;;;18.63;6.85;;;;;;;;;;4978183;28;20163;-55
2021/09/05 00:05:35;;;;;;;14.63;6.63;;;;;;;;;;4985629;28;20038;-56
2021/09/05 00:08:03;;;;;;;16.70;6.60;;;;;;;;;;4980198;28;20050;-56
2021/09/05 00:10:29;;;;;;;17.70;5.88;;;;;;;;;;4982831;28;20042;-56
2021/09/05 00:12:56;;;;;;;15.10;6.32;;;;;;;;;;4981111;28;20042;-56
2021/09/05 00:15:22;;;;;;;19.52;6.88;;;;;;;;;;5003344;28;20034;-55
2021/09/05 00:17:49;;;;;;;18.88;7.45;;;;;;;;;;4981106;28;20066;-56
2021/09/05 00:20:15;;;;;;;19.45;6.68;;;;;;;;;;5002080;28;20038;-56
2021/09/05 00:22:42;;;;;;;16.67;6.22;;;;;;;;;;4978883;28;20038;-55
2021/09/05 00:25:11;;;;;;;18.30;7.00;;;;;;;;;;4980993;28;20034;-55
2021/09/05 00:27:37;;;;;;;16.42;6.80;;;;;;;;;;4985068;28;20034;-55
2021/09/05 00:30:04;;;;;;;13.93;6.35;;;;;;;;;;4980703;28;20096;-55
2021/09/05 00:32:30;;;;;;;17.70;7.05;;;;;;;;;;4982318;28;20035;-55
2021/09/05 00:34:57;;;;;;;21.58;6.40;;;;;;;;;;4978747;28;20058;-54
2021/09/05 00:37:23;;;;;;;16.30;6.97;;;;;;;;;;4984077;28;20082;-54
2021/09/05 00:39:49;;;;;;;16.33;6.93;;;;;;;;;;4978038;28;20046;-54
2021/09/05 00:42:23;;;;;;;17.73;6.93;;;;;;;;;;4981790;28;20034;-56
2021/09/05 00:44:50;;;;;;;20.30;6.80;;;;;;;;;;4997680;28;20132;-56
2021/09/05 00:47:16;;;;;;;14.70;6.43;;;;;;;;;;4983816;28;20042;-55
2021/09/05 00:49:43;;;;;;;20.63;7.03;;;;;;;;;;4979357;28;20056;-55
2021/09/05 00:52:10;;;;;;;22.85;7.18;;;;;;;;;;4982061;28;20042;-56
2021/09/05 00:54:37;;;;;;;16.30;6.63;;;;;;;;;;4979210;28;20034;-54
2021/09/05 00:57:04;;;;;;;16.38;6.55;;;;;;;;;;4984980;28;20038;-55
2021/09/05 00:59:33;;;;;;;20.60;7.13;;;;;;;;;;4979404;28;20057;-55
2021/09/05 01:02:00;;;;;;;18.23;6.88;;;;;;;;;;4983051;28;20042;-54
2021/09/05 01:04:27;;;;;;;18.23;6.68;;;;;;;;;;4997699;28;20152;-55
2021/09/05 01:06:53;;;;;;;15.73;7.07;;;;;;;;;;5004252;28;20042;-54
2021/09/05 01:09:20;;;;;;;19.02;7.28;;;;;;;;;;4983474;28;20132;-56
2021/09/05 01:11:46;;;;;;;18.08;6.78;;;;;;;;;;4984199;28;20058;-55
2021/09/05 01:14:13;;;;;;;22.45;7.35;;;;;;;;;;4986346;28;20042;-54
2021/09/05 01:16:41;;;;;;;16.52;6.38;;;;;;;;;;4983516;28;20035;-53
2021/09/05 01:19:08;;;;;;;22.00;7.05;;;;;;;;;;4984120;28;20038;-55
2021/09/05 01:21:35;;;;;;;19.42;6.40;;;;;;;;;;4981798;28;20046;-55
2021/09/05 01:24:02;;;;;;;18.67;7.03;;;;;;;;;;5004311;28;20119;-55
2021/09/05 01:26:31;;;;;;;20.20;6.22;;;;;;;;;;4982484;28;20042;-55
2021/09/05 01:28:59;;;;;;;17.30;6.68;;;;;;;;;;4985561;28;20052;-56
2021/09/05 01:31:26;;;;;;;15.45;7.03;;;;;;;;;;4982415;28;20058;-56
2021/09/05 01:33:53;;;;;;;17.88;6.55;;;;;;;;;;4986603;28;20046;-55
2021/09/05 01:36:19;;;;;;;19.75;6.90;;;;;;;;;;4979709;28;20050;-54
2021/09/05 01:38:46;;;;;;;23.50;6.80;;;;;;;;;;4982319;28;20041;-54
2021/09/05 01:41:12;;;;;;;21.50;6.75;;;;;;;;;;4982209;28;20085;-55
2021/09/05 01:43:39;;;;;;;20.40;7.10;;;;;;;;;;4986412;28;20050;-55
2021/09/05 01:46:07;;;;;;;20.42;6.75;;;;;;;;;;4983181;28;20046;-55
2021/09/05 01:48:33;;;;;;;14.93;5.68;;;;;;;;;;5004581;28;20042;-54
2021/09/05 01:51:00;;;;;;;16.40;6.32;;;;;;;;;;5000543;28;20057;-56
2021/09/05 01:53:26;;;;;;;18.15;6.80;;;;;;;;;;4983951;28;20124;-55
2021/09/05 01:55:53;;;;;;;17.42;6.65;;;;;;;;;;4984158;28;20042;-56
2021/09/05 01:58:19;;;;;;;16.48;6.32;;;;;;;;;;4983554;28;20062;-56
2021/09/05 02:00:46;;;;;;;20.25;5.95;;;;;;;;;;4982137;28;20054;-55
2021/09/05 02:03:14;;;;;;;17.52;6.60;;;;;;;;;;4980297;28;20178;-55
2021/09/05 02:05:40;;;;;;;19.83;6.40;;;;;;;;;;4988856;28;20053;-54
2021/09/05 02:08:07;;;;;;;19.55;6.55;;;;;;;;;;4988051;28;20056;-55
2021/09/05 02:10:33;;;;;;;17.65;6.85;;;;;;;;;;4986626;28;20046;-55
2021/09/05 02:13:00;;;;;;;17.88;5.88;;;;;;;;;;4992534;28;20045;-56
2021/09/05 02:15:26;;;;;;;13.65;6.38;;;;;;;;;;5005743;28;20038;-55
2021/09/05 02:17:53;;;;;;;16.50;6.95;;;;;;;;;;4989088;28;20058;-55
2021/09/05 02:20:21;;;;;;;20.67;7.53;;;;;;;;;;4982734;28;20047;-55
2021/09/05 02:22:47;;;;;;;17.07;6.13;;;;;;;;;;4974163;28;20052;-56
2021/09/05 02:25:14;;;;;;;17.63;5.93;;;;;;;;;;5024198;28;20274;-52
2021/09/05 02:27:42;;;;;;;17.42;6.65;;;;;;;;;;5000703;28;20049;-56
2021/09/05 02:30:10;;;;;;;;;;;;;;;;;;5005940;28;20050;-54
2021/09/05 02:32:36;;;;;;;13.20;6.03;;;;;;;;;;4982695;28;19930;-56
2021/09/05 02:35:03;;;;;;;13.05;5.93;;;;;;;;;;4985990;28;20034;-55
2021/09/05 02:37:35;;;;;;;17.92;6.80;;;;;;;;;;5003969;28;20133;-55
2021/09/05 02:40:02;;;;;;;19.58;6.65;;;;;;;;;;4975979;28;20034;-55
2021/09/05 02:42:28;;;;;;;16.10;5.90;;;;;;;;;;4982025;28;20049;-55
2021/09/05 02:44:55;;;;;;;18.10;6.78;;;;;;;;;;5010342;28;20041;-56
2021/09/05 02:47:21;;;;;;;17.42;6.90;;;;;;;;;;5003583;28;20046;-55
2021/09/05 02:49:48;;;;;;;18.15;6.78;;;;;;;;;;5017511;28;20070;-55
2021/09/05 02:52:14;;;;;;;19.15;6.72;;;;;;;;;;5007135;28;20045;-53
2021/09/05 02:54:42;;;;;;;15.85;6.15;;;;;;;;;;5012389;28;20052;-56
2021/09/05 02:57:10;;;;;;;19.33;6.20;;;;;;;;;;5022831;28;20050;-54
2021/09/05 02:59:36;;;;;;;14.60;6.50;;;;;;;;;;4990435;28;20042;-55
2021/09/05 03:02:13;;;;;;;15.32;5.88;;;;;;;;;;5050237;23;20058;-55
2021/09/05 03:04:39;;;;;;;19.15;7.00;;;;;;;;;;4917096;29;20055;-55
2021/09/05 03:07:07;;;;;;;19.58;6.40;;;;;;;;;;4927208;29;20051;-54
2021/09/05 03:09:33;;;;;;;18.73;6.20;;;;;;;;;;4924163;29;20051;-54
2021/09/05 03:12:01;;;;;;;17.67;6.70;;;;;;;;;;4904044;29;20104;-53
2021/09/05 03:14:28;;;;;;;15.80;6.67;;;;;;;;;;4926097;29;20055;-55
2021/09/05 03:16:54;;;;;;;18.67;6.65;;;;;;;;;;4905914;29;20372;-55
2021/09/05 03:19:21;;;;;;;14.15;5.75;;;;;;;;;;4926337;29;20032;-53
2021/09/05 03:21:47;;;;;;;16.67;6.63;;;;;;;;;;4920255;29;20055;-53
2021/09/05 03:24:14;;;;;;;17.10;6.03;;;;;;;;;;4908937;29;20059;-55
2021/09/05 03:26:40;;;;;;;17.42;7.03;;;;;;;;;;4921194;29;20067;-53
2021/09/05 03:29:08;;;;;;;17.25;6.57;;;;;;;;;;4923725;29;20048;-53
2021/09/05 03:31:34;;;;;;;20.52;6.68;;;;;;;;;;4909862;29;20052;-54
2021/09/05 03:34:01;;;;;;;28.92;6.78;;;;;;;;;;4908158;29;20071;-54
2021/09/05 03:36:27;;;;;;;19.77;6.63;;;;;;;;;;4911838;29;20056;-55
2021/09/05 03:38:54;;;;;;;18.25;6.45;;;;;;;;;;4920872;29;20067;-55
2021/09/05 03:41:20;;;;;;;16.67;6.50;;;;;;;;;;4910262;29;20048;-55
2021/09/05 03:43:47;;;;;;;15.20;6.55;;;;;;;;;;4905319;29;20378;-54
2021/09/05 03:46:16;;;;;;;17.33;6.22;;;;;;;;;;4924917;29;20044;-54
2021/09/05 03:48:43;;;;;;;18.30;6.53;;;;;;;;;;4910781;29;20036;-53
2021/09/05 03:51:09;;;;;;;14.80;6.32;;;;;;;;;;4924683;29;20130;-56
2021/09/05 03:53:36;;;;;;;17.25;6.38;;;;;;;;;;4908795;29;20066;-53
2021/09/05 03:56:03;;;;;;;17.17;5.88;;;;;;;;;;4904137;29;20047;-55
2021/09/05 03:58:29;;;;;;;15.68;6.28;;;;;;;;;;4922707;29;20123;-52
2021/09/05 04:00:55;;;;;;;19.05;6.30;;;;;;;;;;4906854;29;20052;-56
2021/09/05 04:03:24;;;;;;;16.38;6.43;;;;;;;;;;4918803;29;20043;-52
2021/09/05 04:05:50;;;;;;;16.08;6.55;;;;;;;;;;4923853;28;20059;-51
2021/09/05 04:08:17;;;;;;;18.20;6.00;;;;;;;;;;4925892;29;20067;-52
2021/09/05 04:10:44;;;;;;;17.05;5.82;;;;;;;;;;4928124;29;20055;-54
2021/09/05 04:13:11;;;;;;;16.80;6.47;;;;;;;;;;4940670;29;20040;-54
2021/09/05 04:15:38;;;;;;;18.85;6.47;;;;;;;;;;4927699;29;20102;-55
2021/09/05 04:18:06;;;;;;;17.05;6.72;;;;;;;;;;4924688;29;20043;-55
2021/09/05 04:20:34;;;;;;;15.60;6.47;;;;;;;;;;4927041;29;20040;-54
2021/09/05 04:23:00;;;;;;;18.05;6.55;;;;;;;;;;4924753;29;20047;-56
2021/09/05 04:25:27;;;;;;;15.85;6.78;;;;;;;;;;4927619;29;20510;-53
2021/09/05 04:27:54;;;;;;;18.30;6.20;;;;;;;;;;4917474;29;20031;-54
2021/09/05 04:30:20;;;;;;;13.90;5.90;;;;;;;;;;4909974;29;20051;-55
2021/09/05 04:32:46;;;;;;;16.48;6.57;;;;;;;;;;4906117;29;20040;-53
2021/09/05 04:35:13;;;;;;;13.57;6.05;;;;;;;;;;4911897;29;20040;-54
2021/09/05 04:37:42;;;;;;;13.43;6.20;;;;;;;;;;4925908;28;20122;-52
2021/09/05 04:40:09;;;;;;;16.15;6.30;;;;;;;;;;4926639;29;20059;-53
2021/09/05 04:42:36;;;;;;;17.58;6.47;;;;;;;;;;4927214;29;20291;-54
2021/09/05 04:45:02;;;;;;;19.10;6.78;;;;;;;;;;4939396;28;20426;-54
2021/09/05 04:47:32;;;;;;;18.38;5.93;;;;;;;;;;4927974;29;20043;-53
2021/09/05 04:49:59;;;;;;;16.00;6.15;;;;;;;;;;4907359;29;20127;-56
2021/09/05 04:52:25;;;;;;;18.00;5.75;;;;;;;;;;4924327;29;20040;-53
2021/09/05 04:54:53;;;;;;;16.95;6.40;;;;;;;;;;4911643;29;20059;-54
2021/09/05 04:57:19;;;;;;;18.53;6.30;;;;;;;;;;4926641;29;20032;-54
2021/09/05 04:59:46;;;;;;;19.27;6.90;;;;;;;;;;4912775;29;20040;-54
2021/09/05 05:02:12;;;;;;;16.23;5.53;;;;;;;;;;4923872;29;20123;-53
2021/09/05 05:04:39;;;;;;;14.77;6.15;;;;;;;;;;4942309;28;20043;-55
2021/09/05 05:07:06;;;;;;;14.73;6.40;;;;;;;;;;4943180;29;20039;-56
2021/09/05 05:09:32;;;;;;;15.32;6.43;;;;;;;;;;4935924;29;20099;-51
2021/09/05 05:12:00;;;;;;;16.25;6.18;;;;;;;;;;4944445;28;20143;-54
2021/09/05 05:14:27;;;;;;;15.23;6.87;;;;;;;;;;4953097;28;20036;-55
2021/09/05 05:16:53;;;;;;;21.65;6.75;;;;;;;;;;4925187;29;20032;-55
2021/09/05 05:19:20;;;;;;;16.08;5.90;;;;;;;;;;4905387;28;20044;-55
2021/09/05 05:21:46;;;;;;;20.60;6.65;;;;;;;;;;4924458;29;20044;-55
2021/09/05 05:24:12;;;;;;;15.13;6.45;;;;;;;;;;4925043;29;20039;-52
2021/09/05 05:26:39;;;;;;;21.15;7.43;;;;;;;;;;4921239;28;20122;-53
2021/09/05 05:29:07;;;;;;;19.33;6.47;;;;;;;;;;4923794;29;20051;-55
2021/09/05 05:31:33;;;;;;;15.60;6.93;;;;;;;;;;4918135;28;20047;-56
2021/09/05 05:34:00;;;;;;;15.45;5.40;;;;;;;;;;4918181;29;20309;-54
2021/09/05 05:36:26;;;;;;;17.15;6.20;;;;;;;;;;4936367;28;20598;-53
2021/09/05 05:38:53;;;;;;;20.63;6.68;;;;;;;;;;4907918;28;20069;-52
2021/09/05 05:41:20;;;;;;;15.73;6.53;;;;;;;;;;4931021;28;20039;-54
2021/09/05 05:43:46;;;;;;;18.02;6.47;;;;;;;;;;4942360;28;20048;-53
2021/09/05 05:46:14;;;;;;;15.80;6.03;;;;;;;;;;4913697;29;20044;-54
2021/09/05 05:48:41;;;;;;;16.55;6.20;;;;;;;;;;4939008;29;20036;-54
2021/09/05 05:51:07;;;;;;;16.20;6.15;;;;;;;;;;4909697;28;20051;-53
2021/09/05 05:53:34;;;;;;;16.27;6.43;;;;;;;;;;4920026;29;20130;-52
2021/09/05 05:56:00;;;;;;;17.58;6.18;;;;;;;;;;4914394;29;20068;-54
2021/09/05 05:58:27;;;;;;;18.52;6.47;;;;;;;;;;4910879;29;20054;-54
2021/09/05 06:00:54;;;;;;;21.80;6.88;;;;;;;;;;4923089;28;20093;-53
2021/09/05 06:03:22;;;;;;;18.92;6.30;;;;;;;;;;4924499;29;20040;-54
2021/09/05 06:05:49;;;;;;;14.93;5.97;;;;;;;;;;4892155;29;20055;-54
2021/09/05 06:08:15;;;;;;;15.52;5.88;;;;;;;;;;4907730;29;20040;-54
2021/09/05 06:10:41;;;;;;;21.13;6.72;;;;;;;;;;4900551;29;20059;-53
2021/09/05 06:13:08;;;;;;;14.25;5.93;;;;;;;;;;4893546;29;20055;-54
2021/09/05 06:15:34;;;;;;;17.55;6.90;;;;;;;;;;4892058;29;20052;-53
2021/09/05 06:18:02;;;;;;;13.63;6.30;;;;;;;;;;4906793;29;20067;-52
2021/09/05 06:20:34;;;;;;;20.55;6.53;;;;;;;;;;4908630;29;20051;-54
2021/09/05 06:23:00;;;;;;;15.55;6.65;;;;;;;;;;4888935;29;20066;-53
2021/09/05 06:25:26;;;;;;;20.23;6.40;;;;;;;;;;4907685;29;20127;-51
2021/09/05 06:27:53;;;;;;;13.18;5.65;;;;;;;;;;4914193;29;20055;-54
2021/09/05 06:30:19;;;;;;;14.65;6.18;;;;;;;;;;4910151;29;20080;-55
2021/09/05 06:32:46;;;;;;;18.55;6.35;;;;;;;;;;4918045;29;20036;-53
2021/09/05 06:35:15;;;;;;;21.05;6.05;;;;;;;;;;4908070;29;20043;-54
2021/09/05 06:37:44;;;;;;;14.95;5.90;;;;;;;;;;4887807;29;20055;-54
2021/09/05 06:40:11;;;;;;;16.90;6.22;;;;;;;;;;4890959;29;20041;-55
2021/09/05 06:42:37;;;;;;;19.05;6.78;;;;;;;;;;4905075;29;20073;-54
2021/09/05 06:45:04;;;;;;;16.33;6.35;;;;;;;;;;4890982;29;20036;-55
2021/09/05 06:47:31;;;;;;;15.98;6.75;;;;;;;;;;4891717;29;20054;-55
2021/09/05 06:49:57;;;;;;;14.70;6.57;;;;;;;;;;4886918;29;20052;-54
2021/09/05 06:52:24;;;;;;;14.20;5.57;;;;;;;;;;4908461;29;20126;-53
2021/09/05 06:54:52;;;;;;;16.27;5.75;;;;;;;;;;4894301;29;20045;-55
2021/09/05 06:57:19;;;;;;;13.57;5.60;;;;;;;;;;4910313;29;20130;-53
2021/09/05 06:59:45;;;;;;;15.82;6.13;;;;;;;;;;4893637;29;20048;-55
2021/09/05 07:02:16;;;;;;;17.45;6.88;;;;;;;;;;4891652;29;20052;-55
2021/09/05 07:04:43;;;;;;;17.20;5.75;;;;;;;;;;4906019;29;20059;-53
2021/09/05 07:07:09;;;;;;;14.90;5.55;;;;;;;;;;4940535;29;20059;-53
2021/09/05 07:09:36;;;;;;;15.77;5.82;;;;;;;;;;4938778;28;20051;-56
2021/09/05 07:12:04;;;;;;;11.70;5.35;;;;;;;;;;4927112;29;20070;-54
2021/09/05 07:14:31;;;;;;;18.75;6.25;;;;;;;;;;4918395;29;20055;-54
2021/09/05 07:16:57;;;;;;;19.38;6.38;;;;;;;;;;4925353;29;20044;-51
2021/09/05 07:19:24;;;;;;;16.48;5.97;;;;;;;;;;4910681;29;20122;-54
2021/09/05 07:21:50;;;;;;;13.68;5.38;;;;;;;;;;4928898;29;20043;-55
2021/09/05 07:24:17;;;;;;;18.25;6.07;;;;;;;;;;4941714;28;20510;-53
2021/09/05 07:26:48;;;;;;;18.63;5.85;;;;;;;;;;4928332;29;20043;-54
2021/09/05 07:29:17;;;;;;;18.77;6.20;;;;;;;;;;4954574;28;20046;-53
2021/09/05 07:31:44;;;;;;;14.55;6.10;;;;;;;;;;4929350;29;20076;-53
2021/09/05 07:34:10;;;;;;;18.00;5.78;;;;;;;;;;4933293;29;20048;-54
2021/09/05 07:36:37;;;;;;;15.52;5.63;;;;;;;;;;4939247;28;20054;-54
2021/09/05 07:39:03;;;;;;;16.13;5.53;;;;;;;;;;4944646;29;20156;-55
2021/09/05 07:41:30;;;;;;;15.75;5.18;;;;;;;;;;4931259;29;20036;-55
2021/09/05 07:43:56;;;;;;;17.27;5.63;;;;;;;;;;4931353;29;20043;-55
2021/09/05 07:46:24;;;;;;;18.77;5.47;;;;;;;;;;4924440;29;20062;-54
2021/09/05 07:48:51;;;;;;;13.83;4.93;;;;;;;;;;4930079;29;20048;-54
2021/09/05 07:51:17;;;;;;;15.65;5.38;;;;;;;;;;4940624;28;20130;-54
2021/09/05 07:53:45;;;;;;;11.75;4.90;;;;;;;;;;4934679;28;20043;-53
2021/09/05 07:56:12;;;;;;;12.43;4.53;;;;;;;;;;4936139;29;20043;-53
2021/09/05 07:58:38;;;;;;;12.85;4.65;;;;;;;;;;4939789;29;20065;-56
2021/09/05 08:01:05;;;;;;;17.75;5.68;;;;;;;;;;4927429;29;20146;-55
2021/09/05 08:03:37;;;;;;;16.50;5.35;;;;;;;;;;4930218;29;20043;-54
2021/09/05 08:06:03;;;;;;;12.68;4.93;;;;;;;;;;4942186;28;20047;-55
2021/09/05 08:08:30;;;;;;;16.25;5.30;;;;;;;;;;4932614;29;20043;-52
2021/09/05 08:10:57;;;;;;;15.23;4.70;;;;;;;;;;4932851;28;20130;-54
2021/09/05 08:13:23;;;;;;;14.63;5.22;;;;;;;;;;4931520;29;20036;-53
2021/09/05 08:15:49;;;;;;;13.63;4.95;;;;;;;;;;4943967;28;20051;-54
2021/09/05 08:18:16;;;;;;;14.68;5.03;;;;;;;;;;4931795;29;20066;-52
2021/09/05 08:20:44;;;;;;;13.48;4.80;;;;;;;;;;4931937;29;20064;-54
2021/09/05 08:23:10;;;;;;;12.47;4.80;;;;;;;;;;4925116;29;20083;-52
2021/09/05 08:25:37;;;;;;;13.40;4.72;;;;;;;;;;4929542;29;20103;-53
2021/09/05 08:28:06;;;;;;;12.25;4.13;;;;;;;;;;4935476;28;20053;-54
2021/09/05 08:30:32;;;;;;;15.07;5.05;;;;;;;;;;4927900;29;20070;-56
2021/09/05 08:32:58;;;;;;;17.40;5.07;;;;;;;;;;4925476;29;20044;-53
2021/09/05 08:35:25;;;;;;;13.57;4.57;;;;;;;;;;4934364;29;20043;-53
2021/09/05 08:37:53;;;;;;;11.50;4.63;;;;;;;;;;4929639;29;20050;-55
2021/09/05 08:40:22;;;;;;;9.77;4.65;;;;;;;;;;4931537;29;20051;-55
2021/09/05 08:42:49;;;;;;;13.43;4.75;;;;;;;;;;4935892;28;20054;-55
2021/09/05 08:45:15;;;;;;;12.27;4.32;;;;;;;;;;4935872;28;20051;-55
2021/09/05 08:47:43;;;;;;;14.85;5.35;;;;;;;;;;4932023;28;20043;-54
2021/09/05 08:50:10;;;;;;;14.73;5.05;;;;;;;;;;4939562;29;20047;-58
2021/09/05 08:52:37;;;;;;;15.77;5.20;;;;;;;;;;4928391;29;20063;-58
2021/09/05 08:55:07;;;;;;;13.73;4.60;;;;;;;;;;4932756;29;20076;-59
2021/09/05 08:57:34;;;;;;;14.63;4.78;;;;;;;;;;4932214;29;20063;-59
2021/09/05 09:00:00;;;;;;;13.50;5.22;;;;;;;;;;4923991;29;20528;-59
2021/09/05 09:02:43;;;;;;;17.02;4.63;;;;;;;;;;4932545;29;20027;-59
2021/09/05 09:05:10;;;;;;;13.38;4.50;;;;;;;;;;4925443;29;20063;-59
2021/09/05 09:07:47;;;;;;;13.63;4.40;;;;;;;;;;4928916;29;20043;-58
2021/09/05 09:10:15;;;;;;;15.35;4.68;;;;;;;;;;4923081;29;20035;-59
2021/09/05 09:12:43;;;;;;;12.82;4.28;;;;;;;;;;4929127;29;20035;-59
2021/09/05 09:15:19;;;;;;;14.87;4.73;;;;;;;;;;4927079;29;20063;-54
2021/09/05 09:17:49;;;;;;;13.50;4.65;;;;;;;;;;4931247;29;20051;-54
2021/09/05 09:20:29;;;;;;;15.85;5.20;;;;;;;;;;4941234;28;20142;-54
2021/09/05 09:23:04;;;;;;;14.18;4.35;;;;;;;;;;4934951;29;20054;-56
2021/09/05 09:25:32;;;;;;;14.40;4.03;;;;;;;;;;4952546;28;20050;-57
2021/09/05 09:28:00;;;;;;;17.60;4.53;;;;;;;;;;4931118;29;20152;-56
2021/09/05 09:30:34;;;;;;;11.83;4.40;;;;;;;;;;4926382;29;20059;-56
2021/09/05 09:33:00;;;;;;;11.98;4.18;;;;;;;;;;4937001;29;20063;-55
2021/09/05 09:35:27;;;;;;;11.45;4.30;;;;;;;;;;4927859;29;20043;-54
2021/09/05 09:37:54;;;;;;;12.65;4.15;;;;;;;;;;4933116;29;20039;-56
2021/09/05 09:40:24;;;;;;;11.35;4.30;;;;;;;;;;4929849;29;20092;-57
2021/09/05 09:42:52;;;;;;;17.42;4.80;;;;;;;;;;4945112;29;20051;-63
2021/09/05 09:45:19;;;;;;;8.90;3.90;;;;;;;;;;4934897;29;20040;-55
2021/09/05 09:47:46;;;;;;;12.35;4.47;;;;;;;;;;4936785;28;20039;-56
2021/09/05 09:50:12;;;;;;;12.98;4.25;;;;;;;;;;4931342;28;20162;-54
2021/09/05 09:52:39;;;;;;;13.82;4.32;;;;;;;;;;4930541;29;20044;-56
2021/09/05 09:55:06;;;;;;;10.50;4.13;;;;;;;;;;4924426;28;20107;-56
2021/09/05 09:57:33;;;;;;;10.20;3.65;;;;;;;;;;4944921;28;20035;-57
2021/09/05 10:00:01;;;;;;;10.20;4.15;;;;;;;;;;4945326;28;20586;-56
2021/09/05 10:02:28;;;;;;;10.20;3.70;;;;;;;;;;4928169;28;20485;-57
2021/09/05 10:04:55;;;;;;;9.73;3.58;;;;;;;;;;4945253;29;20158;-55
2021/09/05 10:07:24;;;;;;;13.25;4.35;;;;;;;;;;4929151;29;20126;-57
2021/09/05 10:09:51;;;;;;;11.35;4.35;;;;;;;;;;4928994;29;20040;-56
2021/09/05 10:12:19;;;;;;;11.63;4.45;;;;;;;;;;4931405;29;20039;-56
2021/09/05 10:14:53;;;;;;;11.30;4.05;;;;;;;;;;4944877;29;20036;-56
2021/09/05 10:17:22;;;;;;;13.52;4.30;;;;;;;;;;4926740;28;20047;-56
2021/09/05 10:19:49;;;;;;;12.88;4.13;;;;;;;;;;4934820;29;20046;-57
2021/09/05 10:22:17;;;;;;;14.45;4.10;;;;;;;;;;4929698;29;20130;-56
2021/09/05 10:24:44;;;;;;;15.90;4.30;;;;;;;;;;4933982;29;20055;-53
2021/09/05 10:27:11;;;;;;;12.52;4.63;;;;;;;;;;4942794;28;20066;-57
2021/09/05 10:29:37;;;;;;;15.35;5.20;;;;;;;;;;4935222;29;20060;-56
2021/09/05 10:32:04;;;;;;;11.95;4.60;;;;;;;;;;4918336;29;20088;-57
2021/09/05 10:34:34;;;;;;;11.82;4.57;;;;;;;;;;4945647;29;20043;-57
2021/09/05 10:37:05;;;;;;;11.85;4.47;;;;;;;;;;4925335;29;20043;-57
2021/09/05 10:39:32;;;;;;;14.25;5.10;;;;;;;;;;4926996;29;20054;-57
2021/09/05 10:41:58;;;;;;;10.10;4.13;;;;;;;;;;4923852;28;20058;-57
2021/09/05 10:44:25;;;;;;;10.90;4.05;;;;;;;;;;4908395;29;20044;-57
2021/09/05 10:46:55;;;;;;;10.20;4.20;;;;;;;;;;4910223;29;20059;-57
2021/09/05 10:49:37;;;;;;;9.73;3.58;;;;;;;;;;4923558;28;20067;-58
2021/09/05 10:52:04;;;;;;;9.38;4.10;;;;;;;;;;4910660;29;20051;-58
2021/09/05 10:54:31;;;;;;;12.10;4.38;;;;;;;;;;4927021;29;20143;-57
2021/09/05 10:56:58;;;;;;;11.10;4.25;;;;;;;;;;4929784;29;20142;-58
2021/09/05 10:59:25;;;;;;;14.60;4.57;;;;;;;;;;4944622;28;20047;-58
2021/09/05 11:02:00;;;;;;;13.00;4.35;;;;;;;;;;4931507;29;20035;-60
2021/09/05 11:04:30;;;;;;;13.15;4.25;;;;;;;;;;4924178;29;20043;-57
2021/09/05 11:07:03;;;;;;;9.98;3.60;;;;;;;;;;4927200;29;20068;-57
2021/09/05 11:09:49;;;;;;;8.40;3.53;;;;;;;;;;4911783;29;20036;-55
2021/09/05 11:12:43;;;;;;;13.30;4.45;;;;;;;;;;4944610;29;20059;-58
2021/09/05 11:15:11;;;;;;;10.18;4.10;;;;;;;;;;4954186;28;20092;-57
2021/09/05 11:17:38;;;;;;;9.52;4.22;;;;;;;;;;4960740;28;20063;-58
2021/09/05 11:20:05;;;;;;;8.52;3.92;;;;;;;;;;4924215;29;20066;-58
2021/09/05 11:22:35;;;;;;;11.70;3.92;;;;;;;;;;4944190;28;20043;-57
2021/09/05 11:25:12;;;;;;;11.60;3.92;;;;;;;;;;4950976;28;20043;-57
2021/09/05 11:27:40;;;;;;;7.30;3.65;;;;;;;;;;4928559;29;20044;-57
2021/09/05 11:30:09;;;;;;;12.30;4.30;;;;;;;;;;4944066;28;20048;-58
2021/09/05 11:32:35;;;;;;;9.55;3.95;;;;;;;;;;4941718;28;20127;-58
2021/09/05 11:35:02;;;;;;;11.32;4.13;;;;;;;;;;4921331;28;20098;-61
2021/09/05 11:37:29;;;;;;;12.23;3.80;;;;;;;;;;4908698;29;20040;-58
2021/09/05 11:39:57;;;;;;;10.50;4.53;;;;;;;;;;4913446;29;20049;-61
2021/09/05 11:42:24;;;;;;;9.00;3.72;;;;;;;;;;4928217;29;20110;-61
2021/09/05 11:45:00;;;;;;;9.95;4.05;;;;;;;;;;4924656;29;20088;-61
2021/09/05 11:47:27;;;;;;;13.57;3.80;;;;;;;;;;4928279;29;20047;-61
2021/09/05 11:49:54;;;;;;;10.43;4.00;;;;;;;;;;4922445;29;20103;-61
2021/09/05 11:52:21;;;;;;;13.90;4.07;;;;;;;;;;4927958;29;20063;-60
2021/09/05 11:54:48;;;;;;;10.98;3.65;;;;;;;;;;4923113;29;20055;-60
2021/09/05 11:57:17;;;;;;;10.67;4.03;;;;;;;;;;4928898;29;20024;-61
2021/09/05 11:59:44;;;;;;;10.30;4.07;;;;;;;;;;4926887;29;20274;-61
2021/09/05 12:02:10;;;;;;;10.77;3.88;;;;;;;;;;4926398;29;20051;-60
2021/09/05 12:04:37;;;;;;;11.82;4.57;;;;;;;;;;4927003;29;20036;-60
2021/09/05 12:07:04;;;;;;;11.68;4.13;;;;;;;;;;4923422;29;20051;-57
2021/09/05 12:09:31;;;;;;;11.48;4.00;;;;;;;;;;4928148;29;20205;-58
2021/09/05 12:11:58;;;;;;;9.20;4.20;;;;;;;;;;4908828;29;20062;-58
2021/09/05 12:14:30;;;;;;;9.90;4.25;;;;;;;;;;4909232;29;20052;-58
2021/09/05 12:16:56;;;;;;;10.30;4.15;;;;;;;;;;4923771;28;20122;-58
2021/09/05 12:19:23;;;;;;;10.27;3.63;;;;;;;;;;4907635;29;20054;-59
2021/09/05 12:21:56;;;;;;;11.95;4.00;;;;;;;;;;4914805;29;20051;-58
2021/09/05 12:24:22;;;;;;;9.73;4.10;;;;;;;;;;4958710;28;20061;-61
2021/09/05 12:26:50;;;;;;;9.18;4.13;;;;;;;;;;4924233;29;20054;-58
2021/09/05 12:29:25;;;;;;;9.90;4.03;;;;;;;;;;4945208;29;20062;-58
2021/09/05 12:32:00;;;;;;;9.82;4.05;;;;;;;;;;4917663;29;20047;-59
2021/09/05 12:34:37;;;;;;;11.02;4.55;;;;;;;;;;4924734;29;20051;-58
2021/09/05 12:37:10;;;;;;;9.60;3.83;;;;;;;;;;4911349;29;20047;-62
2021/09/05 12:39:36;;;;;;;14.25;4.35;;;;;;;;;;4945931;29;20050;-59
2021/09/05 12:42:07;;;;;;;9.45;4.03;;;;;;;;;;4926693;29;20031;-58
2021/09/05 12:44:39;;;;;;;13.90;5.00;;;;;;;;;;4928473;29;20043;-59
2021/09/05 12:47:08;;;;;;;12.05;4.43;;;;;;;;;;4921764;29;20043;-58
2021/09/05 12:49:38;;;;;;;8.52;4.00;;;;;;;;;;4930294;29;20058;-58
2021/09/05 12:52:05;;;;;;;11.98;4.57;;;;;;;;;;4924025;28;20066;-58
2021/09/05 12:54:38;;;;;;;10.15;4.28;;;;;;;;;;4931287;29;20042;-58
2021/09/05 12:57:04;;;;;;;9.20;4.35;;;;;;;;;;4939902;28;20102;-58
2021/09/05 12:59:31;;;;;;;10.27;4.15;;;;;;;;;;4943051;28;20047;-58
2021/09/05 13:01:57;;;;;;;10.90;4.57;;;;;;;;;;4932575;29;20031;-58
2021/09/05 13:04:25;;;;;;;10.60;4.25;;;;;;;;;;4951735;28;20107;-58
2021/09/05 13:06:52;;;;;;;15.35;4.53;;;;;;;;;;4932158;29;20039;-58
2021/09/05 13:09:18;;;;;;;10.98;4.45;;;;;;;;;;4929810;29;20068;-59
2021/09/05 13:11:45;;;;;;;10.85;4.63;;;;;;;;;;4931190;29;20059;-59
2021/09/05 13:14:12;;;;;;;10.95;4.57;;;;;;;;;;4941974;28;20051;-58
2021/09/05 13:16:38;;;;;;;11.00;4.30;;;;;;;;;;4946442;28;20046;-59
2021/09/05 13:19:05;;;;;;;9.95;4.75;;;;;;;;;;4942779;29;20058;-58
2021/09/05 13:21:33;;;;;;;9.60;3.97;;;;;;;;;;4941215;29;20175;-58
2021/09/05 13:23:59;;;;;;;12.98;4.45;;;;;;;;;;4938117;28;20095;-57
2021/09/05 13:26:26;;;;;;;12.63;4.47;;;;;;;;;;4947199;28;20126;-59
2021/09/05 13:28:54;;;;;;;11.38;4.30;;;;;;;;;;4941024;28;20044;-59
2021/09/05 13:31:21;;;;;;;10.55;4.15;;;;;;;;;;4945036;28;20067;-59
2021/09/05 13:33:47;;;;;;;8.70;4.00;;;;;;;;;;4928318;29;20107;-58
2021/09/05 13:36:14;;;;;;;9.43;4.43;;;;;;;;;;4934966;29;20043;-58
2021/09/05 13:38:42;;;;;;;10.30;4.80;;;;;;;;;;4941814;28;20046;-59
2021/09/05 13:41:08;;;;;;;9.73;4.07;;;;;;;;;;4934777;29;20054;-58
2021/09/05 13:43:35;;;;;;;9.05;4.20;;;;;;;;;;4944127;28;20095;-58
2021/09/05 13:46:01;;;;;;;8.25;4.00;;;;;;;;;;4930417;29;20035;-58
2021/09/05 13:48:28;;;;;;;12.20;4.45;;;;;;;;;;4931942;29;20071;-58
2021/09/05 13:50:56;;;;;;;8.27;4.32;;;;;;;;;;4929738;29;20059;-59
2021/09/05 13:53:23;;;;;;;12.63;4.60;;;;;;;;;;4944648;29;20704;-58
2021/09/05 13:55:51;;;;;;;10.25;4.70;;;;;;;;;;4928916;29;20061;-59
2021/09/05 13:58:17;;;;;;;8.40;3.90;;;;;;;;;;4930955;29;20039;-59
2021/09/05 14:00:44;;;;;;;9.30;4.35;;;;;;;;;;4927894;29;20047;-58
2021/09/05 14:03:11;;;;;;;8.48;4.45;;;;;;;;;;4920047;29;20063;-59
2021/09/05 14:05:37;;;;;;;12.00;4.30;;;;;;;;;;4926692;29;20024;-59
2021/09/05 14:08:05;;;;;;;8.95;4.10;;;;;;;;;;4932520;29;20047;-59
2021/09/05 14:10:32;;;;;;;10.80;4.32;;;;;;;;;;4942345;28;20052;-59
2021/09/05 14:13:02;;;;;;;13.50;4.57;;;;;;;;;;4942476;29;20055;-59
2021/09/05 14:15:29;;;;;;;14.57;4.78;;;;;;;;;;4928926;29;20039;-59
2021/09/05 14:17:55;;;;;;;9.90;4.50;;;;;;;;;;4945069;28;20063;-59
2021/09/05 14:20:22;;;;;;;10.38;4.35;;;;;;;;;;4926748;28;20032;-59
2021/09/05 14:22:48;;;;;;;10.63;4.40;;;;;;;;;;4934181;29;20088;-59
2021/09/05 14:25:15;;;;;;;9.32;3.92;;;;;;;;;;4944015;29;20059;-59
2021/09/05 14:27:45;;;;;;;10.25;4.35;;;;;;;;;;4941887;28;20043;-59
2021/09/05 14:30:17;;;;;;;8.73;4.35;;;;;;;;;;4930690;29;20092;-59
2021/09/05 14:32:51;;;;;;;11.63;4.68;;;;;;;;;;4954478;28;20051;-59